sensor_id;sensor_type;location;lat;lon;timestamp;P1;durP1;ratioP1;P2;durP2;ratioP2
26920;SDS011;14483;47.844;9.660;2024-03-08T00:00:53;20.60;;;9.93;;
26920;SDS011;14483;47.844;9.660;2024-03-08T00:03:19;23.13;;;9.80;;
26920;SDS011;14483;47.844;9.660;2024-03-08T00:05:45;20.40;;;9.13;;
26920;SDS011;14483;47.844;9.660;2024-03-08T00:08:12;21.75;;;10.15;;
26920;SDS011;14483;47.844;9.660;2024-03-08T00:10:38;22.25;;;9.55;;
26920;SDS011;14483;47.844;9.660;2024-03-08T00:13:05;19.65;;;9.15;;
26920;SDS011;14483;47.844;9.660;2024-03-08T00:15:31;25.45;;;10.98;;
26920;SDS011;14483;47.844;9.660;2024-03-08T00:17:59;17.13;;;8.77;;
26920;SDS011;14483;47.844;9.660;2024-03-08T00:20:26;22.13;;;9.98;;
26920;SDS011;14483;47.844;9.660;2024-03-08T00:22:52;25.73;;;11.07;;
26920;SDS011;14483;47.844;9.660;2024-03-08T00:25:18;18.92;;;9.48;;
26920;SDS011;14483;47.844;9.660;2024-03-08T00:27:45;19.35;;;8.50;;
26920;SDS011;14483;47.844;9.660;2024-03-08T00:30:14;21.60;;;9.10;;
26920;SDS011;14483;47.844;9.660;2024-03-08T00:32:41;20.65;;;9.30;;
26920;SDS011;14483;47.844;9.660;2024-03-08T00:35:08;19.95;;;9.13;;
26920;SDS011;14483;47.844;9.660;2024-03-08T00:37:35;20.85;;;9.80;;
26920;SDS011;14483;47.844;9.660;2024-03-08T00:40:01;17.50;;;8.23;;
26920;SDS011;14483;47.844;9.660;2024-03-08T00:42:28;17.73;;;8.57;;
26920;SDS011;14483;47.844;9.660;2024-03-08T00:44:54;16.15;;;7.45;;
26920;SDS011;14483;47.844;9.660;2024-03-08T00:47:21;21.80;;;9.68;;
26920;SDS011;14483;47.844;9.660;2024-03-08T00:49:47;18.35;;;8.60;;
26920;SDS011;14483;47.844;9.660;2024-03-08T00:52:15;20.48;;;8.90;;
26920;SDS011;14483;47.844;9.660;2024-03-08T00:54:43;20.70;;;9.20;;
26920;SDS011;14483;47.844;9.660;2024-03-08T00:57:10;18.42;;;8.82;;
26920;SDS011;14483;47.844;9.660;2024-03-08T00:59:37;23.83;;;9.88;;
26920;SDS011;14483;47.844;9.660;2024-03-08T01:02:03;18.38;;;9.02;;
26920;SDS011;14483;47.844;9.660;2024-03-08T01:04:31;17.35;;;9.00;;
26920;SDS011;14483;47.844;9.660;2024-03-08T01:06:58;19.63;;;8.63;;
26920;SDS011;14483;47.844;9.660;2024-03-08T01:09:26;19.63;;;8.80;;
26920;SDS011;14483;47.844;9.660;2024-03-08T01:11:53;18.13;;;8.55;;
26920;SDS011;14483;47.844;9.660;2024-03-08T01:14:20;20.80;;;10.10;;
26920;SDS011;14483;47.844;9.660;2024-03-08T01:16:47;21.38;;;9.00;;
26920;SDS011;14483;47.844;9.660;2024-03-08T01:19:13;18.90;;;8.48;;
26920;SDS011;14483;47.844;9.660;2024-03-08T01:21:40;21.52;;;9.63;;
26920;SDS011;14483;47.844;9.660;2024-03-08T01:24:07;21.95;;;9.88;;
26920;SDS011;14483;47.844;9.660;2024-03-08T01:26:34;21.77;;;8.75;;
26920;SDS011;14483;47.844;9.660;2024-03-08T01:29:01;17.02;;;8.25;;
26920;SDS011;14483;47.844;9.660;2024-03-08T01:31:28;18.70;;;8.32;;
26920;SDS011;14483;47.844;9.660;2024-03-08T01:33:54;19.55;;;9.07;;
26920;SDS011;14483;47.844;9.660;2024-03-08T01:36:21;18.58;;;8.57;;
26920;SDS011;14483;47.844;9.660;2024-03-08T01:38:47;17.55;;;8.52;;
26920;SDS011;14483;47.844;9.660;2024-03-08T01:41:14;17.92;;;9.38;;
26920;SDS011;14483;47.844;9.660;2024-03-08T01:43:44;19.10;;;8.73;;
26920;SDS011;14483;47.844;9.660;2024-03-08T01:46:10;16.90;;;8.88;;
26920;SDS011;14483;47.844;9.660;2024-03-08T01:48:38;19.20;;;8.88;;
26920;SDS011;14483;47.844;9.660;2024-03-08T01:51:06;19.92;;;9.27;;
26920;SDS011;14483;47.844;9.660;2024-03-08T01:53:32;20.73;;;9.43;;
26920;SDS011;14483;47.844;9.660;2024-03-08T01:55:59;19.85;;;9.00;;
26920;SDS011;14483;47.844;9.660;2024-03-08T01:58:26;20.85;;;10.75;;
26920;SDS011;14483;47.844;9.660;2024-03-08T02:00:54;25.10;;;9.68;;
26920;SDS011;14483;47.844;9.660;2024-03-08T02:03:22;17.77;;;8.48;;
26920;SDS011;14483;47.844;9.660;2024-03-08T02:05:48;19.25;;;9.23;;
26920;SDS011;14483;47.844;9.660;2024-03-08T02:08:15;23.67;;;9.77;;
26920;SDS011;14483;47.844;9.660;2024-03-08T02:10:43;20.00;;;8.52;;
26920;SDS011;14483;47.844;9.660;2024-03-08T02:13:09;18.85;;;8.57;;
26920;SDS011;14483;47.844;9.660;2024-03-08T02:15:52;20.05;;;8.93;;
26920;SDS011;14483;47.844;9.660;2024-03-08T02:18:19;20.90;;;10.60;;
26920;SDS011;14483;47.844;9.660;2024-03-08T02:20:47;21.40;;;8.88;;
26920;SDS011;14483;47.844;9.660;2024-03-08T02:23:14;21.08;;;9.35;;
26920;SDS011;14483;47.844;9.660;2024-03-08T02:25:40;19.00;;;9.88;;
26920;SDS011;14483;47.844;9.660;2024-03-08T02:28:08;19.60;;;9.05;;
26920;SDS011;14483;47.844;9.660;2024-03-08T02:30:35;18.02;;;8.90;;
26920;SDS011;14483;47.844;9.660;2024-03-08T02:33:01;19.90;;;8.85;;
26920;SDS011;14483;47.844;9.660;2024-03-08T02:35:28;17.88;;;9.02;;
26920;SDS011;14483;47.844;9.660;2024-03-08T02:37:56;19.00;;;9.05;;
26920;SDS011;14483;47.844;9.660;2024-03-08T02:40:23;17.13;;;8.13;;
26920;SDS011;14483;47.844;9.660;2024-03-08T02:42:49;21.42;;;9.88;;
26920;SDS011;14483;47.844;9.660;2024-03-08T02:45:16;17.77;;;9.10;;
26920;SDS011;14483;47.844;9.660;2024-03-08T02:47:42;22.98;;;9.18;;
26920;SDS011;14483;47.844;9.660;2024-03-08T02:50:09;23.90;;;9.60;;
26920;SDS011;14483;47.844;9.660;2024-03-08T02:52:35;22.20;;;9.30;;
26920;SDS011;14483;47.844;9.660;2024-03-08T02:55:03;17.60;;;8.40;;
26920;SDS011;14483;47.844;9.660;2024-03-08T02:57:31;17.73;;;8.88;;
26920;SDS011;14483;47.844;9.660;2024-03-08T02:59:57;21.98;;;9.45;;
26920;SDS011;14483;47.844;9.660;2024-03-08T03:02:24;18.27;;;8.02;;
26920;SDS011;14483;47.844;9.660;2024-03-08T03:04:51;20.88;;;8.57;;
26920;SDS011;14483;47.844;9.660;2024-03-08T03:07:18;17.10;;;8.27;;
26920;SDS011;14483;47.844;9.660;2024-03-08T03:09:44;21.27;;;9.57;;
26920;SDS011;14483;47.844;9.660;2024-03-08T03:12:12;24.45;;;9.40;;
26920;SDS011;14483;47.844;9.660;2024-03-08T03:14:39;17.92;;;8.35;;
26920;SDS011;14483;47.844;9.660;2024-03-08T03:17:05;19.35;;;9.13;;
26920;SDS011;14483;47.844;9.660;2024-03-08T03:19:31;18.55;;;9.30;;
26920;SDS011;14483;47.844;9.660;2024-03-08T03:21:57;21.35;;;9.13;;
26920;SDS011;14483;47.844;9.660;2024-03-08T03:24:23;18.25;;;8.55;;
26920;SDS011;14483;47.844;9.660;2024-03-08T03:26:50;17.77;;;8.65;;
26920;SDS011;14483;47.844;9.660;2024-03-08T03:29:18;21.52;;;9.73;;
26920;SDS011;14483;47.844;9.660;2024-03-08T03:31:45;23.50;;;9.27;;
26920;SDS011;14483;47.844;9.660;2024-03-08T03:34:11;21.33;;;8.75;;
26920;SDS011;14483;47.844;9.660;2024-03-08T03:36:38;16.50;;;9.05;;
26920;SDS011;14483;47.844;9.660;2024-03-08T03:39:07;19.33;;;8.82;;
26920;SDS011;14483;47.844;9.660;2024-03-08T03:41:41;20.15;;;8.10;;
26920;SDS011;14483;47.844;9.660;2024-03-08T03:44:08;22.00;;;9.90;;
26920;SDS011;14483;47.844;9.660;2024-03-08T03:46:36;25.92;;;10.32;;
26920;SDS011;14483;47.844;9.660;2024-03-08T03:49:02;20.55;;;9.68;;
26920;SDS011;14483;47.844;9.660;2024-03-08T03:51:29;21.08;;;10.38;;
26920;SDS011;14483;47.844;9.660;2024-03-08T03:53:56;23.77;;;11.10;;
26920;SDS011;14483;47.844;9.660;2024-03-08T03:56:24;27.70;;;10.77;;
26920;SDS011;14483;47.844;9.660;2024-03-08T03:58:51;21.40;;;9.60;;
26920;SDS011;14483;47.844;9.660;2024-03-08T04:01:17;20.25;;;9.02;;
26920;SDS011;14483;47.844;9.660;2024-03-08T04:03:45;20.55;;;10.32;;
26920;SDS011;14483;47.844;9.660;2024-03-08T04:06:12;23.65;;;9.85;;
26920;SDS011;14483;47.844;9.660;2024-03-08T04:08:39;23.73;;;10.60;;
26920;SDS011;14483;47.844;9.660;2024-03-08T04:11:06;20.90;;;9.50;;
26920;SDS011;14483;47.844;9.660;2024-03-08T04:13:33;20.58;;;9.70;;
26920;SDS011;14483;47.844;9.660;2024-03-08T04:16:01;27.88;;;11.43;;
26920;SDS011;14483;47.844;9.660;2024-03-08T04:18:27;23.30;;;9.73;;
26920;SDS011;14483;47.844;9.660;2024-03-08T04:20:55;28.83;;;11.50;;
26920;SDS011;14483;47.844;9.660;2024-03-08T04:23:21;26.38;;;11.93;;
26920;SDS011;14483;47.844;9.660;2024-03-08T04:25:48;23.27;;;11.57;;
26920;SDS011;14483;47.844;9.660;2024-03-08T04:28:14;25.90;;;11.90;;
26920;SDS011;14483;47.844;9.660;2024-03-08T04:30:42;30.45;;;13.25;;
26920;SDS011;14483;47.844;9.660;2024-03-08T04:33:08;26.55;;;12.30;;
26920;SDS011;14483;47.844;9.660;2024-03-08T04:35:34;42.35;;;18.38;;
26920;SDS011;14483;47.844;9.660;2024-03-08T04:38:02;38.72;;;15.73;;
26920;SDS011;14483;47.844;9.660;2024-03-08T04:40:30;28.38;;;13.13;;
26920;SDS011;14483;47.844;9.660;2024-03-08T04:42:57;36.85;;;13.43;;
26920;SDS011;14483;47.844;9.660;2024-03-08T04:45:24;32.92;;;13.23;;
26920;SDS011;14483;47.844;9.660;2024-03-08T04:47:51;37.88;;;15.23;;
26920;SDS011;14483;47.844;9.660;2024-03-08T04:50:17;35.75;;;12.63;;
26920;SDS011;14483;47.844;9.660;2024-03-08T04:52:43;25.17;;;11.88;;
26920;SDS011;14483;47.844;9.660;2024-03-08T04:55:11;35.42;;;13.23;;
26920;SDS011;14483;47.844;9.660;2024-03-08T04:57:37;28.52;;;12.38;;
26920;SDS011;14483;47.844;9.660;2024-03-08T05:00:04;37.55;;;15.95;;
26920;SDS011;14483;47.844;9.660;2024-03-08T05:02:36;28.57;;;13.20;;
26920;SDS011;14483;47.844;9.660;2024-03-08T05:05:04;31.90;;;13.75;;
26920;SDS011;14483;47.844;9.660;2024-03-08T05:07:31;28.85;;;13.18;;
26920;SDS011;14483;47.844;9.660;2024-03-08T05:09:57;30.38;;;12.90;;
26920;SDS011;14483;47.844;9.660;2024-03-08T05:12:25;30.60;;;13.05;;
26920;SDS011;14483;47.844;9.660;2024-03-08T05:14:51;28.88;;;11.80;;
26920;SDS011;14483;47.844;9.660;2024-03-08T05:17:18;28.08;;;12.82;;
26920;SDS011;14483;47.844;9.660;2024-03-08T05:19:45;31.17;;;12.43;;
26920;SDS011;14483;47.844;9.660;2024-03-08T05:22:11;34.83;;;12.63;;
26920;SDS011;14483;47.844;9.660;2024-03-08T05:24:38;33.08;;;12.40;;
26920;SDS011;14483;47.844;9.660;2024-03-08T05:27:04;28.40;;;12.85;;
26920;SDS011;14483;47.844;9.660;2024-03-08T05:29:32;36.97;;;13.70;;
26920;SDS011;14483;47.844;9.660;2024-03-08T05:31:59;33.92;;;13.93;;
26920;SDS011;14483;47.844;9.660;2024-03-08T05:34:25;32.42;;;14.73;;
26920;SDS011;14483;47.844;9.660;2024-03-08T05:36:53;38.45;;;15.73;;
26920;SDS011;14483;47.844;9.660;2024-03-08T05:39:20;36.65;;;14.55;;
26920;SDS011;14483;47.844;9.660;2024-03-08T05:41:46;30.83;;;14.38;;
26920;SDS011;14483;47.844;9.660;2024-03-08T05:44:12;39.75;;;15.82;;
26920;SDS011;14483;47.844;9.660;2024-03-08T05:46:40;29.40;;;13.40;;
26920;SDS011;14483;47.844;9.660;2024-03-08T05:49:08;29.25;;;12.80;;
26920;SDS011;14483;47.844;9.660;2024-03-08T05:51:35;28.95;;;13.30;;
26920;SDS011;14483;47.844;9.660;2024-03-08T05:54:02;31.13;;;12.57;;
26920;SDS011;14483;47.844;9.660;2024-03-08T05:56:30;28.05;;;13.05;;
26920;SDS011;14483;47.844;9.660;2024-03-08T05:58:56;29.08;;;12.32;;
26920;SDS011;14483;47.844;9.660;2024-03-08T06:01:23;28.50;;;12.70;;
26920;SDS011;14483;47.844;9.660;2024-03-08T06:03:51;26.38;;;10.98;;
26920;SDS011;14483;47.844;9.660;2024-03-08T06:06:20;28.25;;;12.70;;
26920;SDS011;14483;47.844;9.660;2024-03-08T06:08:47;28.13;;;11.82;;
26920;SDS011;14483;47.844;9.660;2024-03-08T06:11:14;29.77;;;12.30;;
26920;SDS011;14483;47.844;9.660;2024-03-08T06:13:42;31.38;;;12.23;;
26920;SDS011;14483;47.844;9.660;2024-03-08T06:16:08;29.02;;;13.27;;
26920;SDS011;14483;47.844;9.660;2024-03-08T06:18:35;26.38;;;11.38;;
26920;SDS011;14483;47.844;9.660;2024-03-08T06:21:03;34.85;;;13.65;;
26920;SDS011;14483;47.844;9.660;2024-03-08T06:23:30;33.22;;;13.93;;
26920;SDS011;14483;47.844;9.660;2024-03-08T06:25:56;30.92;;;13.43;;
26920;SDS011;14483;47.844;9.660;2024-03-08T06:28:23;29.48;;;12.55;;
26920;SDS011;14483;47.844;9.660;2024-03-08T06:30:50;30.73;;;13.57;;
26920;SDS011;14483;47.844;9.660;2024-03-08T06:33:16;28.70;;;12.57;;
26920;SDS011;14483;47.844;9.660;2024-03-08T06:35:43;24.80;;;10.98;;
26920;SDS011;14483;47.844;9.660;2024-03-08T06:38:10;26.80;;;11.30;;
26920;SDS011;14483;47.844;9.660;2024-03-08T06:40:37;25.05;;;11.13;;
26920;SDS011;14483;47.844;9.660;2024-03-08T06:43:05;29.70;;;12.95;;
26920;SDS011;14483;47.844;9.660;2024-03-08T06:45:31;28.63;;;12.85;;
26920;SDS011;14483;47.844;9.660;2024-03-08T06:47:58;26.52;;;12.23;;
26920;SDS011;14483;47.844;9.660;2024-03-08T06:50:25;29.65;;;13.25;;
26920;SDS011;14483;47.844;9.660;2024-03-08T06:52:51;27.90;;;12.02;;
26920;SDS011;14483;47.844;9.660;2024-03-08T06:55:20;34.25;;;13.55;;
26920;SDS011;14483;47.844;9.660;2024-03-08T06:57:46;30.23;;;14.13;;
26920;SDS011;14483;47.844;9.660;2024-03-08T07:00:13;28.88;;;12.82;;
26920;SDS011;14483;47.844;9.660;2024-03-08T07:02:43;33.40;;;12.60;;
26920;SDS011;14483;47.844;9.660;2024-03-08T07:05:10;28.25;;;13.23;;
26920;SDS011;14483;47.844;9.660;2024-03-08T07:07:37;22.92;;;9.20;;
26920;SDS011;14483;47.844;9.660;2024-03-08T07:10:03;29.88;;;12.70;;
26920;SDS011;14483;47.844;9.660;2024-03-08T07:12:31;31.90;;;12.00;;
26920;SDS011;14483;47.844;9.660;2024-03-08T07:14:58;28.50;;;12.00;;
26920;SDS011;14483;47.844;9.660;2024-03-08T07:17:24;31.15;;;13.10;;
26920;SDS011;14483;47.844;9.660;2024-03-08T07:19:51;30.73;;;12.70;;
26920;SDS011;14483;47.844;9.660;2024-03-08T07:22:19;32.63;;;12.98;;
26920;SDS011;14483;47.844;9.660;2024-03-08T07:24:45;28.38;;;12.23;;
26920;SDS011;14483;47.844;9.660;2024-03-08T07:27:29;26.70;;;11.57;;
26920;SDS011;14483;47.844;9.660;2024-03-08T07:29:57;27.42;;;11.73;;
26920;SDS011;14483;47.844;9.660;2024-03-08T07:32:24;28.98;;;12.80;;
26920;SDS011;14483;47.844;9.660;2024-03-08T07:34:51;29.98;;;12.63;;
26920;SDS011;14483;47.844;9.660;2024-03-08T07:37:18;28.98;;;11.90;;
26920;SDS011;14483;47.844;9.660;2024-03-08T07:39:45;25.15;;;12.55;;
26920;SDS011;14483;47.844;9.660;2024-03-08T07:42:12;25.88;;;11.98;;
26920;SDS011;14483;47.844;9.660;2024-03-08T07:44:38;24.50;;;10.98;;
26920;SDS011;14483;47.844;9.660;2024-03-08T07:47:06;31.45;;;13.35;;
26920;SDS011;14483;47.844;9.660;2024-03-08T07:49:34;25.23;;;11.85;;
26920;SDS011;14483;47.844;9.660;2024-03-08T07:52:02;21.40;;;10.45;;
26920;SDS011;14483;47.844;9.660;2024-03-08T07:54:29;22.52;;;10.40;;
26920;SDS011;14483;47.844;9.660;2024-03-08T07:56:55;23.50;;;11.70;;
26920;SDS011;14483;47.844;9.660;2024-03-08T07:59:22;23.30;;;11.45;;
26920;SDS011;14483;47.844;9.660;2024-03-08T08:01:48;23.90;;;11.63;;
26920;SDS011;14483;47.844;9.660;2024-03-08T08:04:16;22.85;;;10.75;;
26920;SDS011;14483;47.844;9.660;2024-03-08T08:06:43;22.65;;;11.32;;
26920;SDS011;14483;47.844;9.660;2024-03-08T08:09:09;24.27;;;11.85;;
26920;SDS011;14483;47.844;9.660;2024-03-08T08:11:39;20.65;;;10.50;;
26920;SDS011;14483;47.844;9.660;2024-03-08T08:14:08;25.73;;;12.75;;
26920;SDS011;14483;47.844;9.660;2024-03-08T08:16:35;22.00;;;11.27;;
26920;SDS011;14483;47.844;9.660;2024-03-08T08:19:02;26.63;;;12.13;;
26920;SDS011;14483;47.844;9.660;2024-03-08T08:21:34;24.75;;;11.05;;
26920;SDS011;14483;47.844;9.660;2024-03-08T08:24:02;25.40;;;11.68;;
26920;SDS011;14483;47.844;9.660;2024-03-08T08:26:28;23.17;;;11.43;;
26920;SDS011;14483;47.844;9.660;2024-03-08T08:28:55;21.40;;;10.80;;
26920;SDS011;14483;47.844;9.660;2024-03-08T08:31:21;22.17;;;10.88;;
26920;SDS011;14483;47.844;9.660;2024-03-08T08:33:47;23.35;;;11.32;;
26920;SDS011;14483;47.844;9.660;2024-03-08T08:36:14;25.00;;;12.30;;
26920;SDS011;14483;47.844;9.660;2024-03-08T08:38:42;24.20;;;11.35;;
26920;SDS011;14483;47.844;9.660;2024-03-08T08:41:09;24.60;;;11.75;;
26920;SDS011;14483;47.844;9.660;2024-03-08T08:43:36;22.02;;;9.43;;
26920;SDS011;14483;47.844;9.660;2024-03-08T08:46:04;22.23;;;10.45;;
26920;SDS011;14483;47.844;9.660;2024-03-08T08:48:31;20.67;;;10.38;;
26920;SDS011;14483;47.844;9.660;2024-03-08T08:50:57;22.75;;;9.77;;
26920;SDS011;14483;47.844;9.660;2024-03-08T08:53:24;18.80;;;9.25;;
26920;SDS011;14483;47.844;9.660;2024-03-08T08:55:51;18.27;;;8.90;;
26920;SDS011;14483;47.844;9.660;2024-03-08T08:58:18;18.10;;;9.20;;
26920;SDS011;14483;47.844;9.660;2024-03-08T09:00:45;16.75;;;8.35;;
26920;SDS011;14483;47.844;9.660;2024-03-08T09:03:11;16.30;;;7.60;;
26920;SDS011;14483;47.844;9.660;2024-03-08T09:05:38;18.17;;;8.90;;
26920;SDS011;14483;47.844;9.660;2024-03-08T09:08:05;16.55;;;7.60;;
26920;SDS011;14483;47.844;9.660;2024-03-08T09:10:31;17.90;;;7.80;;
26920;SDS011;14483;47.844;9.660;2024-03-08T09:13:00;18.48;;;8.90;;
26920;SDS011;14483;47.844;9.660;2024-03-08T09:15:29;20.20;;;8.95;;
26920;SDS011;14483;47.844;9.660;2024-03-08T09:17:55;19.45;;;9.75;;
26920;SDS011;14483;47.844;9.660;2024-03-08T09:20:22;17.98;;;8.60;;
26920;SDS011;14483;47.844;9.660;2024-03-08T09:22:48;17.65;;;8.30;;
26920;SDS011;14483;47.844;9.660;2024-03-08T09:25:14;20.00;;;8.65;;
26920;SDS011;14483;47.844;9.660;2024-03-08T09:27:41;20.48;;;9.07;;
26920;SDS011;14483;47.844;9.660;2024-03-08T09:30:09;17.85;;;9.35;;
26920;SDS011;14483;47.844;9.660;2024-03-08T09:32:38;19.23;;;8.23;;
26920;SDS011;14483;47.844;9.660;2024-03-08T09:35:04;11.85;;;6.63;;
26920;SDS011;14483;47.844;9.660;2024-03-08T09:37:32;15.43;;;7.40;;
26920;SDS011;14483;47.844;9.660;2024-03-08T09:39:58;16.77;;;8.18;;
26920;SDS011;14483;47.844;9.660;2024-03-08T09:42:25;18.67;;;9.25;;
26920;SDS011;14483;47.844;9.660;2024-03-08T09:44:52;17.50;;;8.07;;
26920;SDS011;14483;47.844;9.660;2024-03-08T09:47:20;20.15;;;9.13;;
26920;SDS011;14483;47.844;9.660;2024-03-08T09:49:48;23.83;;;10.27;;
26920;SDS011;14483;47.844;9.660;2024-03-08T09:52:14;28.85;;;11.45;;
26920;SDS011;14483;47.844;9.660;2024-03-08T09:54:41;28.13;;;11.63;;
26920;SDS011;14483;47.844;9.660;2024-03-08T09:57:09;39.33;;;15.93;;
26920;SDS011;14483;47.844;9.660;2024-03-08T09:59:36;33.35;;;14.40;;
26920;SDS011;14483;47.844;9.660;2024-03-08T10:02:16;22.25;;;10.73;;
26920;SDS011;14483;47.844;9.660;2024-03-08T10:04:44;22.00;;;10.30;;
26920;SDS011;14483;47.844;9.660;2024-03-08T10:07:13;22.23;;;9.88;;
26920;SDS011;14483;47.844;9.660;2024-03-08T10:09:40;30.38;;;12.02;;
26920;SDS011;14483;47.844;9.660;2024-03-08T10:12:12;20.23;;;9.85;;
26920;SDS011;14483;47.844;9.660;2024-03-08T10:14:39;15.30;;;8.00;;
26920;SDS011;14483;47.844;9.660;2024-03-08T10:17:05;16.40;;;7.63;;
26920;SDS011;14483;47.844;9.660;2024-03-08T10:19:32;18.10;;;9.15;;
26920;SDS011;14483;47.844;9.660;2024-03-08T10:22:00;18.08;;;9.00;;
26920;SDS011;14483;47.844;9.660;2024-03-08T10:24:29;18.95;;;9.32;;
26920;SDS011;14483;47.844;9.660;2024-03-08T10:26:58;17.35;;;8.32;;
26920;SDS011;14483;47.844;9.660;2024-03-08T10:29:24;22.05;;;9.93;;
26920;SDS011;14483;47.844;9.660;2024-03-08T10:31:51;19.05;;;9.95;;
26920;SDS011;14483;47.844;9.660;2024-03-08T10:34:17;15.77;;;9.18;;
26920;SDS011;14483;47.844;9.660;2024-03-08T10:36:44;17.30;;;8.98;;
26920;SDS011;14483;47.844;9.660;2024-03-08T10:39:15;17.98;;;9.43;;
26920;SDS011;14483;47.844;9.660;2024-03-08T10:41:44;17.35;;;8.90;;
26920;SDS011;14483;47.844;9.660;2024-03-08T10:44:14;16.48;;;7.78;;
26920;SDS011;14483;47.844;9.660;2024-03-08T10:46:48;16.60;;;8.35;;
26920;SDS011;14483;47.844;9.660;2024-03-08T10:49:20;14.05;;;7.63;;
26920;SDS011;14483;47.844;9.660;2024-03-08T10:51:48;19.10;;;8.85;;
26920;SDS011;14483;47.844;9.660;2024-03-08T10:54:18;21.83;;;8.27;;
26920;SDS011;14483;47.844;9.660;2024-03-08T10:56:45;16.75;;;9.18;;
26920;SDS011;14483;47.844;9.660;2024-03-08T10:59:14;15.00;;;7.10;;
26920;SDS011;14483;47.844;9.660;2024-03-08T11:01:42;19.08;;;8.85;;
26920;SDS011;14483;47.844;9.660;2024-03-08T11:04:08;15.07;;;7.63;;
26920;SDS011;14483;47.844;9.660;2024-03-08T11:06:41;16.50;;;9.55;;
26920;SDS011;14483;47.844;9.660;2024-03-08T11:09:08;18.08;;;9.82;;
26920;SDS011;14483;47.844;9.660;2024-03-08T11:11:39;17.17;;;8.90;;
26920;SDS011;14483;47.844;9.660;2024-03-08T11:14:08;18.08;;;8.80;;
26920;SDS011;14483;47.844;9.660;2024-03-08T11:16:54;14.32;;;7.28;;
26920;SDS011;14483;47.844;9.660;2024-03-08T11:19:24;17.83;;;9.23;;
26920;SDS011;14483;47.844;9.660;2024-03-08T11:21:56;15.65;;;8.82;;
26920;SDS011;14483;47.844;9.660;2024-03-08T11:24:23;16.27;;;7.82;;
26920;SDS011;14483;47.844;9.660;2024-03-08T11:26:52;18.52;;;9.10;;
26920;SDS011;14483;47.844;9.660;2024-03-08T11:29:32;15.85;;;9.02;;
26920;SDS011;14483;47.844;9.660;2024-03-08T11:32:03;18.23;;;7.88;;
26920;SDS011;14483;47.844;9.660;2024-03-08T11:34:30;16.52;;;8.02;;
26920;SDS011;14483;47.844;9.660;2024-03-08T11:36:59;16.25;;;8.43;;
26920;SDS011;14483;47.844;9.660;2024-03-08T11:39:25;17.42;;;9.18;;
26920;SDS011;14483;47.844;9.660;2024-03-08T11:41:55;14.55;;;8.68;;
26920;SDS011;14483;47.844;9.660;2024-03-08T11:44:21;15.77;;;8.10;;
26920;SDS011;14483;47.844;9.660;2024-03-08T11:46:48;18.33;;;9.25;;
26920;SDS011;14483;47.844;9.660;2024-03-08T11:49:15;15.73;;;7.65;;
26920;SDS011;14483;47.844;9.660;2024-03-08T11:51:41;14.95;;;6.95;;
26920;SDS011;14483;47.844;9.660;2024-03-08T11:54:10;16.92;;;8.60;;
26920;SDS011;14483;47.844;9.660;2024-03-08T11:56:37;14.75;;;7.60;;
26920;SDS011;14483;47.844;9.660;2024-03-08T11:59:06;17.40;;;9.27;;
26920;SDS011;14483;47.844;9.660;2024-03-08T12:01:37;16.80;;;8.45;;
26920;SDS011;14483;47.844;9.660;2024-03-08T12:04:04;17.83;;;9.75;;
26920;SDS011;14483;47.844;9.660;2024-03-08T12:06:36;14.93;;;8.57;;
26920;SDS011;14483;47.844;9.660;2024-03-08T12:09:02;17.58;;;8.90;;
26920;SDS011;14483;47.844;9.660;2024-03-08T12:11:29;17.58;;;9.30;;
26920;SDS011;14483;47.844;9.660;2024-03-08T12:13:56;16.40;;;8.57;;
26920;SDS011;14483;47.844;9.660;2024-03-08T12:16:24;15.82;;;8.85;;
26920;SDS011;14483;47.844;9.660;2024-03-08T12:18:50;15.55;;;8.98;;
26920;SDS011;14483;47.844;9.660;2024-03-08T12:21:18;16.15;;;7.88;;
26920;SDS011;14483;47.844;9.660;2024-03-08T12:23:46;18.60;;;8.73;;
26920;SDS011;14483;47.844;9.660;2024-03-08T12:26:16;14.68;;;7.97;;
26920;SDS011;14483;47.844;9.660;2024-03-08T12:28:43;18.05;;;8.48;;
26920;SDS011;14483;47.844;9.660;2024-03-08T12:31:11;16.17;;;8.30;;
26920;SDS011;14483;47.844;9.660;2024-03-08T12:33:42;15.30;;;7.65;;
26920;SDS011;14483;47.844;9.660;2024-03-08T12:36:14;21.33;;;9.65;;
26920;SDS011;14483;47.844;9.660;2024-03-08T12:38:43;17.25;;;10.73;;
26920;SDS011;14483;47.844;9.660;2024-03-08T12:41:09;17.92;;;10.93;;
26920;SDS011;14483;47.844;9.660;2024-03-08T12:43:36;16.05;;;8.95;;
26920;SDS011;14483;47.844;9.660;2024-03-08T12:46:02;16.60;;;8.93;;
26920;SDS011;14483;47.844;9.660;2024-03-08T12:48:33;16.50;;;8.00;;
26920;SDS011;14483;47.844;9.660;2024-03-08T12:51:01;19.70;;;9.90;;
26920;SDS011;14483;47.844;9.660;2024-03-08T12:53:27;17.85;;;9.57;;
26920;SDS011;14483;47.844;9.660;2024-03-08T12:55:54;19.50;;;10.52;;
26920;SDS011;14483;47.844;9.660;2024-03-08T12:58:21;17.08;;;10.18;;
26920;SDS011;14483;47.844;9.660;2024-03-08T13:00:48;14.70;;;8.23;;
26920;SDS011;14483;47.844;9.660;2024-03-08T13:03:14;16.83;;;10.98;;
26920;SDS011;14483;47.844;9.660;2024-03-08T13:05:41;14.70;;;8.35;;
26920;SDS011;14483;47.844;9.660;2024-03-08T13:08:09;18.05;;;9.48;;
26920;SDS011;14483;47.844;9.660;2024-03-08T13:10:38;18.55;;;10.55;;
26920;SDS011;14483;47.844;9.660;2024-03-08T13:13:04;18.10;;;9.55;;
26920;SDS011;14483;47.844;9.660;2024-03-08T13:15:31;15.60;;;10.02;;
26920;SDS011;14483;47.844;9.660;2024-03-08T13:17:58;16.08;;;9.13;;
26920;SDS011;14483;47.844;9.660;2024-03-08T13:20:25;16.60;;;9.15;;
26920;SDS011;14483;47.844;9.660;2024-03-08T13:22:53;18.88;;;7.85;;
26920;SDS011;14483;47.844;9.660;2024-03-08T13:25:21;15.77;;;9.10;;
26920;SDS011;14483;47.844;9.660;2024-03-08T13:27:49;13.85;;;7.47;;
26920;SDS011;14483;47.844;9.660;2024-03-08T13:30:15;17.02;;;8.07;;
26920;SDS011;14483;47.844;9.660;2024-03-08T13:32:43;18.58;;;8.77;;
26920;SDS011;14483;47.844;9.660;2024-03-08T13:35:10;14.57;;;7.82;;
26920;SDS011;14483;47.844;9.660;2024-03-08T13:37:37;17.30;;;9.02;;
26920;SDS011;14483;47.844;9.660;2024-03-08T13:40:05;17.20;;;8.40;;
26920;SDS011;14483;47.844;9.660;2024-03-08T13:42:37;15.32;;;8.10;;
26920;SDS011;14483;47.844;9.660;2024-03-08T13:45:04;13.48;;;7.43;;
26920;SDS011;14483;47.844;9.660;2024-03-08T13:47:32;13.30;;;6.57;;
26920;SDS011;14483;47.844;9.660;2024-03-08T13:49:59;15.90;;;9.23;;
26920;SDS011;14483;47.844;9.660;2024-03-08T13:52:25;14.00;;;7.93;;
26920;SDS011;14483;47.844;9.660;2024-03-08T13:54:54;15.15;;;8.07;;
26920;SDS011;14483;47.844;9.660;2024-03-08T13:57:20;17.48;;;9.35;;
26920;SDS011;14483;47.844;9.660;2024-03-08T13:59:48;14.18;;;8.68;;
26920;SDS011;14483;47.844;9.660;2024-03-08T14:02:16;13.60;;;9.27;;
26920;SDS011;14483;47.844;9.660;2024-03-08T14:04:42;15.43;;;9.43;;
26920;SDS011;14483;47.844;9.660;2024-03-08T14:07:09;14.50;;;8.07;;
26920;SDS011;14483;47.844;9.660;2024-03-08T14:09:36;12.75;;;7.45;;
26920;SDS011;14483;47.844;9.660;2024-03-08T14:12:08;17.17;;;9.10;;
26920;SDS011;14483;47.844;9.660;2024-03-08T14:14:34;17.25;;;9.10;;
26920;SDS011;14483;47.844;9.660;2024-03-08T14:17:02;15.77;;;7.47;;
26920;SDS011;14483;47.844;9.660;2024-03-08T14:19:29;14.63;;;8.20;;
26920;SDS011;14483;47.844;9.660;2024-03-08T14:21:56;14.82;;;9.25;;
26920;SDS011;14483;47.844;9.660;2024-03-08T14:24:24;15.48;;;10.10;;
26920;SDS011;14483;47.844;9.660;2024-03-08T14:26:50;13.30;;;7.95;;
26920;SDS011;14483;47.844;9.660;2024-03-08T14:29:17;18.70;;;8.93;;